• Join FlightAware (Why Join?)
  • Login
  • US Flag 
Rudolph Flight #1: Arrived! 
11:01AM EST


 

Airport Tracker/Info


-or-


 

Live Flight TrackerFlight Track Log ✈ SWA1017 ✈ 18-Sep-2013 ✈ KHRL - KAUS

Flight Track Log - Related Links

Times and Time Zones

All times are in EDT time to prevent confusion due to time zone crossing. See the SWA1017 flight status page for this flight to view local times or setup timezone preferences in your user account.

Time Position Orientation Groundspeed Altitude Reporting Facility
EDT Latitude Longitude Course Direction KTS MPH feet Rate Location/Type
04:50PM 26.2150 -97.6456 61° Northeast 196 226 900  Level Houston Center
04:51PM 26.2289 -97.6181 61° Northeast 185 213 1,800 2,400 Climbing Houston Center
04:52PM 26.2678 -97.5783 42° Northeast 219 252 4,300 3,000 Climbing Houston Center
04:52PM 26.2800 -97.5667 41° Northeast 244 281 4,900 3,000 Climbing Houston Center
04:53PM 26.3367 -97.5486 16° North 270 311 7,400 2,880 Climbing Houston Center
04:54PM 26.4197 -97.5278 13° North 283 326 10,300 2,340 Climbing Houston Center
04:55PM 26.5153 -97.5208 North 338 389 12,300 2,400 Climbing Houston Center
04:56PM 26.6242 -97.5156 North 361 415 15,300 2,580 Climbing Houston Center
04:57PM 26.7292 -97.5114 North 375 432 17,700 2,280 Climbing Houston Center
04:58PM 26.8400 -97.5442 345° North 396 456 20,100 1,980 Climbing Houston Center
04:59PM 26.9503 -97.5786 344° North 413 475 21,900 1,380 Climbing Houston Center
05:00PM 27.0756 -97.5867 357° North 421 484 23,000 1,440 Climbing Houston Center
05:01PM 27.1811 -97.5747 North 403 464 24,900 1,500 Climbing Houston Center
05:02PM 27.2956 -97.6075 346° North 420 483 26,100 1,200 Climbing Houston Center
05:03PM 27.4092 -97.6489 342° North 430 495 27,500 1,440 Climbing Houston Center
05:04PM 27.5481 -97.6994 342° North 436 502 29,100 1,380 Climbing Houston Center
05:05PM 27.6636 -97.7400 343° North 436 502 30,400 1,440 Climbing Houston Center
05:06PM 27.7778 -97.7806 343° North 433 498 32,100 1,560 Climbing Houston Center
05:07PM 27.8908 -97.8214 342° North 429 494 33,700 1,320 Climbing Houston Center
05:08PM 28.0006 -97.8611 342° North 421 484 34,900 1,080 Climbing Houston Center
05:09PM 28.1306 -97.9081 342° North 413 475 36,000 480 Climbing Houston Center
05:10PM 28.2322 -97.9436 343° North 408 470 36,000  Level Houston Center
05:11PM 28.3422 -97.9833 342° North 411 473 36,000  Level Houston Center
05:12PM 28.4506 -98.0219 343° North 408 470 36,000  Level Houston Center
05:13PM 28.5833 -98.0717 342° North 415 478 36,000  Level Houston Center
05:14PM 28.6939 -98.1108 343° North 415 478 36,000  Level Houston Center
05:15PM 28.8108 -98.1547 342° North 416 479 36,000 -60 Level Houston Center
05:16PM 28.9297 -98.1981 342° North 416 479 35,900 -1,560 Descending Houston Center
05:18PM 29.0450 -98.2236 349° North 436 502 32,800 -3,240 Descending Houston Center
05:19PM 29.1678 -98.2142 North 444 511 29,200 -3,540 Descending Houston Center
05:20PM 29.3056 -98.2006 North 459 528 25,600 -2,760 Descending Houston Center
05:21PM 29.4378 -98.1886 North 447 514 23,500 -1,620 Descending Houston Center
05:22PM 29.5531 -98.1778 North 422 486 22,300 -1,140 Descending Houston Center
05:23PM 29.6725 -98.1656 North 404 465 21,200 -1,200 Descending Houston Center
05:24PM 29.7825 -98.1556 North 399 459 19,900 -1,800 Descending Houston Center
05:25PM 29.9003 -98.1439 North 394 453 17,500 -2,220 Descending Houston Center
05:26PM 30.0056 -98.1347 North 381 438 15,400 -2,100 Descending Houston Center
05:27PM 30.1150 -98.1228 North 366 421 13,200 -1,920 Descending Houston Center
05:28PM 30.2069 -98.0928 16° North 350 403 11,400 -1,320 Descending Houston Center
05:29PM 30.2778 -98.0344 35° Northeast 308 354 10,500 -1,140 Descending Houston Center
05:30PM 30.3314 -97.9636 49° Northeast 290 334 9,100 -1,500 Descending Houston Center
05:31PM 30.3592 -97.8769 70° East 287 330 7,500 -1,020 Descending Houston Center
05:32PM 30.3656 -97.7967 85° East 249 287 7,000 -720 Descending Houston Center
05:33PM 30.3614 -97.7325 94° East 209 241 6,100 -1,320 Descending Houston Center
05:34PM 30.3328 -97.6950 131° Southeast 150 173 4,300 -1,680 Descending Houston Center
05:35PM 30.2903 -97.6811 164° South 154 177 2,700 -1,440 Descending Houston Center
05:36PM 30.2486 -97.6789 177° South 152 175 1,300 -840 Descending Houston Center
05:37PM 30.2036 -97.6753 176° South 150 173 1,000 -300 Descending Houston Center